Time;durP1;ratioP1;P1;durP2;ratioP2;P2;SDS_P1;SDS_P2;PMS_P1;PMS_P2;Temp;Humidity;BMP_temperature;BMP_pressure;BME280_temperature;BME280_humidity;BME280_pressure;Samples;Min_cycle;Max_cycle;Signal;HPM_P1;HPM_P2
2021/03/12 00:04:27;;;;;;;4.03;2.60;;;;;;;-10.51;100.00;101039.70;1800661;77;30800;-79
2021/03/12 00:06:58;;;;;;;3.50;1.93;;;;;;;-10.59;100.00;101044.58;1812796;79;20989;-80
2021/03/12 00:09:27;;;;;;;2.17;1.93;;;;;;;-10.59;100.00;101045.88;1743842;82;21365;-78
2021/03/12 00:11:57;;;;;;;6.97;1.37;;;;;;;-10.62;100.00;101048.52;1812746;79;21037;-79
2021/03/12 00:14:28;;;;;;;2.60;2.03;;;;;;;-10.66;100.00;101042.89;1743761;82;20997;-79
2021/03/12 00:16:57;;;;;;;2.50;1.73;;;;;;;-10.70;100.00;101037.68;1812977;79;20946;-79
2021/03/12 00:19:25;;;;;;;3.40;1.57;;;;;;;-10.71;100.00;101035.97;1788783;79;21013;-79
2021/03/12 00:21:57;;;;;;;3.93;2.20;;;;;;;-10.72;100.00;101033.36;1743589;82;21331;-80
2021/03/12 00:24:25;;;;;;;4.63;1.53;;;;;;;-10.72;100.00;101035.53;1812735;79;20993;-79
2021/03/12 00:26:59;;;;;;;4.90;2.30;;;;;;;-10.76;100.00;101031.22;1791017;79;20973;-79
2021/03/12 00:29:28;;;;;;;5.03;2.03;;;;;;;-10.78;100.00;101026.45;1795773;79;20993;-79
2021/03/12 00:31:58;;;;;;;2.87;1.60;;;;;;;-10.80;100.00;101019.48;1780700;80;20998;-79
2021/03/12 00:34:27;;;;;;;3.07;1.43;;;;;;;-10.84;100.00;101015.16;1743561;82;21212;-78
2021/03/12 00:36:56;;;;;;;1.60;1.50;;;;;;;-10.87;100.00;101016.48;1780786;80;20982;-80
2021/03/12 00:39:24;;;;;;;3.20;2.23;;;;;;;-10.88;100.00;101015.63;1770021;80;20948;-78
2021/03/12 00:42:04;;;;;;;2.37;2.17;;;;;;;-10.89;100.00;101012.58;1741409;82;20911;-79
2021/03/12 00:44:34;;;;;;;1.27;1.07;;;;;;;-10.91;100.00;101002.13;1780853;80;20919;-79
2021/03/12 00:47:03;;;;;;;2.60;2.07;;;;;;;-10.94;100.00;100999.98;1780404;80;21200;-79
2021/03/12 00:49:31;;;;;;;2.13;1.93;;;;;;;-10.94;100.00;100999.56;1743080;82;21013;-79
2021/03/12 00:52:02;;;;;;;2.20;1.77;;;;;;;-10.96;100.00;100993.49;1780586;80;20931;-79
2021/03/12 00:54:32;;;;;;;4.57;2.30;;;;;;;-11.00;100.00;100990.91;1743005;82;21309;-79
2021/03/12 00:57:04;;;;;;;3.73;1.63;;;;;;;-11.03;100.00;100990.92;1726133;83;21013;-79
2021/03/12 00:59:32;;;;;;;10.17;1.90;;;;;;;-11.07;100.00;100991.38;1725744;83;21376;-78
2021/03/12 01:02:03;;;;;;;5.60;1.67;;;;;;;-11.10;100.00;101001.42;1725335;83;21017;-79
2021/03/12 01:04:44;;;;;;;2.80;1.50;;;;;;;-11.07;100.00;100988.32;1844875;76;22725;-78
2021/03/12 01:07:13;;;;;;;1.50;1.40;;;;;;;-11.11;100.00;100989.68;1786053;80;21020;-79
2021/03/12 01:09:44;;;;;;;3.40;2.17;;;;;;;-11.11;100.00;100999.68;1784536;80;22124;-79
2021/03/12 01:12:15;;;;;;;1.37;1.27;;;;;;;-11.14;100.00;100991.86;1781672;80;20988;-77
2021/03/12 01:14:43;;;;;;;1.63;1.53;;;;;;;-11.16;100.00;100987.53;1798016;79;21040;-78
2021/03/12 01:17:12;;;;;;;1.67;1.60;;;;;;;-11.18;100.00;100981.02;1785551;80;20933;-80
2021/03/12 01:19:40;;;;;;;2.27;1.33;;;;;;;-11.21;100.00;100981.02;1798151;79;21336;-80
2021/03/12 01:22:10;;;;;;;1.23;1.17;;;;;;;-11.25;100.00;100978.02;1785363;80;22311;-79
2021/03/12 01:24:39;;;;;;;3.13;2.17;;;;;;;-11.27;100.00;100973.25;1783793;80;20977;-78
2021/03/12 01:27:09;;;;;;;3.37;2.43;;;;;;;-11.29;100.00;100962.81;1785292;80;21021;-79
2021/03/12 01:29:38;;;;;;;2.67;2.17;;;;;;;-11.30;100.00;100960.20;1778661;79;20922;-79
2021/03/12 01:32:11;;;;;;;;;;;;;;;-11.34;100.00;100961.12;1766031;81;20950;-79
2021/03/12 01:34:41;;;;;;;3.40;1.80;;;;;;;-11.37;100.00;100955.45;1763407;81;20999;-78
2021/03/12 01:37:10;;;;;;;6.40;2.97;;;;;;;-11.42;100.00;100950.70;1792679;79;20965;-79
2021/03/12 01:39:41;;;;;;;9.93;4.20;;;;;;;-11.46;100.00;100955.53;1793065;79;20969;-79
2021/03/12 01:42:09;;;;;;;7.67;3.40;;;;;;;-11.50;100.00;100956.44;1797257;79;21001;-79
2021/03/12 01:44:39;;;;;;;3.83;2.60;;;;;;;-11.53;100.00;100950.78;1797175;79;20993;-78
2021/03/12 01:47:07;;;;;;;5.07;2.80;;;;;;;-11.55;100.00;100956.90;1797129;79;21542;-79
2021/03/12 01:49:36;;;;;;;3.67;2.33;;;;;;;-11.58;100.00;100962.13;1797280;79;21016;-79
2021/03/12 01:52:05;;;;;;;2.63;1.40;;;;;;;-11.58;100.00;100953.84;1797380;79;21044;-78
2021/03/12 01:54:35;;;;;;;2.00;1.13;;;;;;;-11.56;100.00;100958.65;1797258;79;21462;-79
2021/03/12 01:57:06;;;;;;;2.77;1.47;;;;;;;-11.56;100.00;100959.95;1792532;79;20969;-78
2021/03/12 01:59:48;;;;;;;2.30;2.13;;;;;;;-11.55;100.00;100960.36;1792383;79;21369;-78
2021/03/12 02:02:24;;;;;;;3.37;1.77;;;;;;;-11.56;100.00;100965.59;1792011;79;21068;-78
2021/03/12 02:05:02;;;;;;;3.50;1.10;;;;;;;-11.56;100.00;100967.78;1845809;76;22389;-77
2021/03/12 02:07:32;;;;;;;0.90;0.90;;;;;;;-11.59;100.00;100963.88;1815996;79;21626;-79
2021/03/12 02:10:07;;;;;;;4.67;1.87;;;;;;;-11.59;100.00;100966.94;1811187;79;21821;-78
2021/03/12 02:13:04;;;;;;;0.73;0.73;;;;;;;-11.57;100.00;100971.25;1784358;79;20973;-78
2021/03/12 02:15:40;;;;;;;0.83;0.83;;;;;;;-11.58;100.00;100968.20;1745418;81;20986;-78
2021/03/12 02:18:16;;;;;;;0.87;0.87;;;;;;;-11.56;100.00;100966.48;1745312;82;20966;-79
2021/03/12 02:20:57;;;;;;;1.30;1.13;;;;;;;-11.58;100.00;100972.12;1745419;82;21009;-78
2021/03/12 02:23:36;;;;;;;3.77;2.03;;;;;;;-11.58;100.00;100976.03;1706968;82;21886;-77
2021/03/12 02:26:19;;;;;;;1.93;1.83;;;;;;;-11.61;100.00;100964.33;1745219;82;21005;-78
2021/03/12 02:29:00;;;;;;;6.07;1.97;;;;;;;-11.62;100.00;100970.41;1841710;77;22725;-77
2021/03/12 02:31:32;;;;;;;2.73;1.93;;;;;;;-11.68;100.00;100970.02;1822046;78;20969;-77
2021/03/12 02:34:01;;;;;;;5.60;2.07;;;;;;;-11.68;100.00;100976.53;1823667;77;21197;-77
2021/03/12 02:36:31;;;;;;;3.13;1.87;;;;;;;-11.69;100.00;100975.23;1823925;78;20886;-78
2021/03/12 02:39:01;;;;;;;2.33;1.80;;;;;;;-11.71;100.00;100974.38;1806441;77;21029;-78
2021/03/12 02:41:30;;;;;;;1.57;1.47;;;;;;;-11.74;100.00;100981.77;1825768;77;20941;-78
2021/03/12 02:44:01;;;;;;;0.90;0.90;;;;;;;-11.74;100.00;100984.83;1802794;78;21357;-78
2021/03/12 02:46:31;;;;;;;6.33;2.90;;;;;;;-11.73;100.00;100976.14;1819225;78;21207;-78
2021/03/12 02:49:03;;;;;;;2.33;2.13;;;;;;;-11.75;100.00;100975.28;1822139;78;21001;-78
2021/03/12 02:51:32;;;;;;;4.03;2.17;;;;;;;-11.77;100.00;100979.61;1726157;78;21013;-78
2021/03/12 02:54:03;;;;;;;4.27;1.87;;;;;;;-11.75;100.00;100985.27;1802405;78;20985;-78
2021/03/12 02:56:34;;;;;;;2.97;1.70;;;;;;;-11.76;100.00;100988.74;1786626;78;21024;-78
2021/03/12 02:59:03;;;;;;;4.03;1.53;;;;;;;-11.77;100.00;100990.94;1776529;78;21282;-78
2021/03/12 03:01:34;;;;;;;3.22;2.12;;;;;;;-11.76;100.00;100992.66;1698466;83;21011;-77
2021/03/12 03:04:21;;;;;;;3.57;2.47;;;;;;;-11.68;100.00;100996.11;1822776;78;23792;-76
2021/03/12 03:06:59;;;;;;;2.30;1.90;;;;;;;-11.71;100.00;100988.73;1784361;80;20997;-78
2021/03/12 03:09:46;;;;;;;2.23;1.80;;;;;;;-11.68;100.00;100988.28;1845256;77;25205;-78
2021/03/12 03:12:21;;;;;;;1.43;1.43;;;;;;;-11.71;100.00;100983.06;1820043;78;21578;-78
2021/03/12 03:14:59;;;;;;;4.43;2.43;;;;;;;-11.69;100.00;100985.23;1820008;78;21168;-76
2021/03/12 03:17:39;;;;;;;;;;;;;;;;;;;;;
2021/03/12 03:20:11;;;;;;;3.87;1.80;;;;;;;-11.66;100.00;100975.23;1794000;78;21020;-78
2021/03/12 03:22:45;;;;;;;0.95;0.95;;;;;;;-11.67;100.00;100976.98;1820189;78;22054;-78
2021/03/12 03:25:17;;;;;;;4.45;2.60;;;;;;;-11.68;100.00;100983.50;1820230;78;24034;-78
2021/03/12 03:35:21;;;;;;;1.20;1.20;;;;;;;-11.77;100.00;100988.74;1798647;78;22734;-77
2021/03/12 03:38:23;;;;;;;2.83;2.17;;;;;;;-11.84;100.00;100990.09;1775493;79;20955;-78
2021/03/12 03:41:53;;;;;;;7.00;2.63;;;;;;;-11.82;100.00;100980.95;1875618;76;27921;-76
2021/03/12 03:48:20;;;;;;;2.20;1.80;;;;;;;-11.87;100.00;100980.97;1817725;79;27504;-78
2021/03/12 03:51:24;;;;;;;1.70;1.53;;;;;;;-11.89;100.00;100980.56;1813663;79;22846;-77
2021/03/12 03:54:17;;;;;;;2.70;1.75;;;;;;;-11.97;100.00;100987.56;1565279;89;21190;-77
2021/03/12 03:58:04;;;;;;;1.20;1.17;;;;;;;-11.93;100.00;100990.58;1851182;77;25146;-77
2021/03/12 04:04:44;;;;;;;4.53;1.70;;;;;;;-11.91;100.00;100994.08;1853117;77;27210;-76
2021/03/12 04:07:20;;;;;;;2.50;2.30;;;;;;;-11.97;100.00;100988.42;1724718;82;21505;-77
2021/03/12 04:09:55;;;;;;;4.87;2.07;;;;;;;-11.94;100.00;100994.94;1807297;77;22520;-77
2021/03/12 04:12:27;;;;;;;1.53;1.47;;;;;;;-11.98;100.00;100995.84;1769264;80;20991;-78
2021/03/12 04:14:57;;;;;;;1.70;1.43;;;;;;;-11.98;100.00;100989.31;1768701;81;21365;-79
2021/03/12 04:20:00;;;;;;;3.27;2.43;;;;;;;-11.96;100.00;100995.39;1728564;83;21036;-77
2021/03/12 04:22:43;;;;;;;1.77;1.60;;;;;;;-11.93;100.00;100997.99;1845656;76;22348;-77
2021/03/12 04:25:18;;;;;;;2.63;1.90;;;;;;;-11.96;100.00;100998.44;1810938;78;21438;-77
2021/03/12 04:28:11;;;;;;;;;;;;;;;;;;;;;
2021/03/12 04:31:13;;;;;;;2.33;2.10;;;;;;;-11.87;100.00;101004.44;1800416;77;24536;-78
2021/03/12 04:34:56;;;;;;;;;;;;;;;;;;;;;
2021/03/12 04:38:27;;;;;;;2.85;1.85;;;;;;;-11.86;100.00;100990.54;1525243;94;21126;-77
2021/03/12 04:42:29;;;;;;;;;;;;;;;;;;;;;
2021/03/12 04:45:23;;;;;;;1.47;1.10;;;;;;;-11.67;100.00;100999.16;1908314;74;22769;-76
2021/03/12 04:47:57;;;;;;;4.27;2.00;;;;;;;-11.65;100.00;100999.13;1795888;78;21036;-77
2021/03/12 04:50:26;;;;;;;2.93;1.93;;;;;;;-11.59;100.00;100996.95;1800380;78;21198;-77
2021/03/12 04:52:55;;;;;;;10.77;2.90;;;;;;;-11.55;100.00;100985.16;1790166;78;21844;-78
2021/03/12 04:55:25;;;;;;;6.33;2.83;;;;;;;-11.53;100.00;100991.23;1767569;79;21372;-77
2021/03/12 04:57:55;;;;;;;1.23;1.23;;;;;;;-11.50;100.00;100982.09;1764644;79;21015;-78
2021/03/12 05:00:24;;;;;;;1.77;1.67;;;;;;;-11.40;100.00;100973.78;1770436;79;21011;-79
2021/03/12 05:03:05;;;;;;;3.60;2.33;;;;;;;-11.25;100.00;100953.21;1811826;77;22761;-76
2021/03/12 05:05:35;;;;;;;4.47;2.17;;;;;;;-11.26;100.00;100946.24;1782809;80;20985;-78
2021/03/12 05:08:09;;;;;;;1.80;1.70;;;;;;;-11.27;100.00;100945.84;1783114;80;20934;-78
2021/03/12 05:11:07;;;;;;;1.20;1.20;;;;;;;-11.22;100.00;100957.11;1750077;80;21013;-77
2021/03/12 05:13:40;;;;;;;5.27;2.70;;;;;;;-11.14;100.00;100952.68;1777856;80;20997;-78
2021/03/12 05:16:08;;;;;;;7.17;3.47;;;;;;;-11.06;100.00;100963.09;1782524;80;21029;-79
2021/03/12 05:18:38;;;;;;;2.37;2.17;;;;;;;-10.99;100.00;100961.30;1753119;80;20989;-79
2021/03/12 05:21:08;;;;;;;2.33;1.77;;;;;;;-10.91;100.00;100970.78;1782710;80;22255;-79
2021/03/12 05:23:36;;;;;;;5.63;2.20;;;;;;;-10.76;100.00;100974.17;1782838;80;21006;-79
2021/03/12 05:26:04;;;;;;;3.67;2.47;;;;;;;-10.64;100.00;100977.09;1750730;80;21013;-79
2021/03/12 05:28:33;;;;;;;2.83;2.13;;;;;;;-10.49;100.00;100976.95;1782535;80;21559;-79
2021/03/12 05:31:01;;;;;;;8.90;1.67;;;;;;;-10.37;100.00;100984.67;1782976;80;21564;-78
2021/03/12 05:33:30;;;;;;;4.10;3.10;;;;;;;-10.31;100.00;100995.02;1780028;80;22101;-79
2021/03/12 05:36:01;;;;;;;4.53;2.97;;;;;;;-10.29;100.00;101002.86;1705344;82;21008;-78
2021/03/12 05:38:31;;;;;;;5.10;2.23;;;;;;;-10.30;100.00;101012.91;1736262;82;21020;-79
2021/03/12 05:41:01;;;;;;;2.97;2.23;;;;;;;-10.39;100.00;101025.67;1706074;84;21048;-78
2021/03/12 05:43:30;;;;;;;2.13;1.93;;;;;;;-10.48;100.00;101029.69;1710978;84;21000;-80
2021/03/12 05:46:00;;;;;;;7.97;3.47;;;;;;;-10.49;100.00;101037.09;1704550;82;21075;-78
2021/03/12 05:48:31;;;;;;;6.43;2.67;;;;;;;-10.42;100.00;101019.60;1733439;82;21507;-78
2021/03/12 05:51:00;;;;;;;2.53;2.03;;;;;;;-10.41;100.00;101000.40;1733362;82;21029;-78
2021/03/12 05:53:29;;;;;;;6.20;2.47;;;;;;;-10.31;100.00;100979.33;1733150;81;20997;-79
2021/03/12 05:55:57;;;;;;;5.77;2.67;;;;;;;-10.14;100.00;100973.08;1733518;82;21606;-79
2021/03/12 05:58:27;;;;;;;4.43;1.87;;;;;;;-10.04;100.00;100964.21;1733526;82;21203;-77
2021/03/12 06:00:58;;;;;;;9.70;3.17;;;;;;;-10.00;100.00;100956.77;1733163;82;21603;-79
2021/03/12 06:03:26;;;;;;;2.03;1.90;;;;;;;-9.96;100.00;100961.52;1705878;83;20906;-78
2021/03/12 06:05:55;;;;;;;2.87;2.13;;;;;;;-9.85;100.00;100962.23;1679856;84;21049;-75
2021/03/12 06:08:25;;;;;;;3.67;2.50;;;;;;;-9.73;100.00;100965.16;1705749;83;21067;-76
2021/03/12 06:10:55;;;;;;;7.10;1.80;;;;;;;-9.64;100.00;100941.91;1705596;83;20918;-77
2021/03/12 06:13:25;;;;;;;5.67;3.40;;;;;;;-9.51;100.00;100939.98;1722904;82;21032;-77
2021/03/12 06:15:55;;;;;;;3.87;2.87;;;;;;;-9.32;100.00;100944.52;1744579;81;20992;-77
2021/03/12 06:18:25;;;;;;;6.83;3.90;;;;;;;-9.25;100.00;100935.67;1728264;83;20937;-77
2021/03/12 06:21:29;;;;;;;8.37;3.33;;;;;;;-9.12;100.00;100935.02;1845854;76;22884;-76
2021/03/12 06:24:01;;;;;;;7.45;3.17;;;;;;;-9.06;100.00;100937.11;1811442;79;21558;-79
2021/03/12 06:26:44;;;;;;;6.97;3.70;;;;;;;-8.94;100.00;100925.98;1811603;79;21334;-79
2021/03/12 06:29:13;;;;;;;7.20;3.47;;;;;;;-8.80;100.00;100930.55;1747064;80;21024;-85
2021/03/12 06:32:16;;;;;;;2.80;2.10;;;;;;;-8.49;100.00;100939.20;1882076;74;22649;-79
2021/03/12 06:35:01;;;;;;;7.10;3.03;;;;;;;-8.33;100.00;100951.55;1877090;75;20969;-78
2021/03/12 06:37:38;;;;;;;3.73;2.50;;;;;;;-8.27;100.00;100951.41;1880568;76;21298;-79
2021/03/12 06:40:13;;;;;;;;;;;;;;;-8.19;100.00;100956.08;1842832;78;21016;-76
2021/03/12 06:43:08;;;;;;;7.53;3.10;;;;;;;-8.09;100.00;100963.30;1840351;78;20551;-77
2021/03/12 06:45:53;;;;;;;6.93;3.50;;;;;;;-7.98;100.00;100967.91;1840488;78;20989;-76
2021/03/12 06:48:35;;;;;;;3.33;2.33;;;;;;;-7.77;100.00;100974.91;1840249;78;21530;-78
2021/03/12 06:51:10;;;;;;;10.90;4.53;;;;;;;-7.54;100.00;100963.49;1834996;76;28391;-76
2021/03/12 06:53:43;;;;;;;8.17;4.27;;;;;;;-7.47;100.00;100965.09;1825599;77;21423;-76
2021/03/12 06:56:16;;;;;;;5.90;3.37;;;;;;;-7.33;100.00;100962.15;1839772;76;22211;-76
2021/03/12 06:58:59;;;;;;;8.23;3.80;;;;;;;-7.24;100.00;100978.16;1771296;80;21013;-78
2021/03/12 07:01:38;;;;;;;6.67;4.60;;;;;;;-7.12;100.00;100976.99;1802681;78;22645;-78
2021/03/12 07:04:15;;;;;;;6.10;3.37;;;;;;;-7.09;100.00;100984.36;1745237;80;21372;-76
2021/03/12 07:06:47;;;;;;;4.97;2.97;;;;;;;-7.05;100.00;100969.37;1765837;80;21869;-77
2021/03/12 07:09:21;;;;;;;5.93;3.63;;;;;;;-7.12;100.00;100966.48;1763023;81;21056;-77
2021/03/12 07:12:10;;;;;;;4.17;2.33;;;;;;;-7.17;100.00;100969.23;1847086;75;22740;-77
2021/03/12 07:14:49;;;;;;;6.33;2.73;;;;;;;-7.16;100.00;100976.66;1819114;77;20905;-80
2021/03/12 07:17:29;;;;;;;8.37;5.10;;;;;;;-7.10;100.00;100984.39;1814262;79;22423;-77
2021/03/12 07:19:59;;;;;;;5.17;2.97;;;;;;;-7.04;100.00;100981.63;1812376;79;21035;-77
2021/03/12 07:22:29;;;;;;;3.73;2.40;;;;;;;-7.01;100.00;100989.88;1815922;79;20988;-79
2021/03/12 07:24:58;;;;;;;4.57;3.20;;;;;;;-6.88;100.00;100984.76;1815970;79;21009;-76
2021/03/12 07:27:31;;;;;;;10.13;2.80;;;;;;;-6.69;100.00;100978.14;1816427;79;21045;-79
2021/03/12 07:30:02;;;;;;;5.63;3.20;;;;;;;-6.51;100.00;100969.37;1741372;82;21665;-84
2021/03/12 07:32:42;;;;;;;2.63;2.43;;;;;;;-6.32;100.00;100971.93;1804416;77;22731;-83
2021/03/12 07:35:11;;;;;;;4.17;2.97;;;;;;;-6.26;100.00;100972.67;1765976;80;20989;-80
2021/03/12 07:37:48;;;;;;;14.23;5.67;;;;;;;-6.09;100.00;100970.45;1775214;80;21374;-83
2021/03/12 07:40:18;;;;;;;3.67;2.00;;;;;;;-5.73;100.00;100978.17;1776383;79;20974;-81
2021/03/12 07:42:50;;;;;;;4.00;2.60;;;;;;;-5.50;100.00;100978.81;1778574;79;20942;-82
2021/03/12 07:45:24;;;;;;;12.33;4.12;;;;;;;-5.26;99.82;100958.76;1774848;80;25140;-82
2021/03/12 07:48:13;;;;;;;7.10;2.97;;;;;;;-5.17;95.51;100954.52;1775952;79;21026;-80
2021/03/12 07:50:48;;;;;;;3.57;2.53;;;;;;;-5.16;95.24;100948.77;1713676;82;21213;-81
2021/03/12 07:53:50;;;;;;;6.33;2.97;;;;;;;-4.98;93.60;100945.99;1839345;77;22956;-81
2021/03/12 07:56:51;;;;;;;3.60;2.47;;;;;;;-4.94;91.25;100948.92;1811226;77;22972;-81
2021/03/12 07:59:52;;;;;;;8.50;4.47;;;;;;;-4.98;87.10;100940.25;1710153;82;20986;-79
2021/03/12 08:02:56;;;;;;;4.97;3.07;;;;;;;-5.13;82.60;100955.70;1684777;85;21213;-78
2021/03/12 08:05:54;;;;;;;3.57;2.30;;;;;;;-5.30;80.75;100950.98;1813142;74;23439;-80
2021/03/12 08:08:40;;;;;;;8.17;3.97;;;;;;;-5.35;81.10;100943.20;1696501;84;21025;-80
2021/03/12 08:11:36;;;;;;;5.37;2.37;;;;;;;-5.23;81.05;100945.92;1700386;84;21203;-83
2021/03/12 08:14:21;;;;;;;4.87;2.97;;;;;;;-5.09;81.23;100935.80;1636799;86;21054;-81
2021/03/12 08:17:11;;;;;;;4.73;2.93;;;;;;;-4.96;81.61;100924.38;1795930;79;26420;-80
2021/03/12 08:19:47;;;;;;;5.27;3.10;;;;;;;-4.83;83.88;100928.34;1770010;81;21040;-81
2021/03/12 08:22:42;;;;;;;8.03;3.80;;;;;;;-4.63;82.63;100921.06;1780187;79;21221;-84
2021/03/12 08:25:47;;;;;;;5.90;3.10;;;;;;;-4.50;79.82;100906.97;1734174;82;21085;-79
2021/03/12 08:28:29;;;;;;;9.97;4.63;;;;;;;-4.71;70.67;100904.66;1844212;76;23074;-85
2021/03/12 08:31:09;;;;;;;6.13;3.17;;;;;;;-4.78;71.06;100918.50;1721450;81;21105;-83
2021/03/12 08:34:25;;;;;;;6.27;3.40;;;;;;;-4.58;71.23;100921.77;1818610;77;23547;-80
2021/03/12 08:36:59;;;;;;;8.00;3.93;;;;;;;-4.46;71.71;100911.25;1754096;80;20949;-85
2021/03/12 08:39:48;;;;;;;6.60;2.67;;;;;;;-4.16;70.47;100913.72;1896900;75;23033;-76
2021/03/12 08:43:12;;;;;;;6.87;2.53;;;;;;;-4.20;69.74;100918.25;1724877;82;21090;-79
2021/03/12 08:46:01;;;;;;;12.03;3.90;;;;;;;-4.03;66.13;100911.02;1799644;79;23946;-78
2021/03/12 08:48:33;;;;;;;4.90;2.50;;;;;;;-4.06;65.10;100914.23;1749201;81;21459;-80
2021/03/12 08:51:15;;;;;;;5.55;2.72;;;;;;;-3.91;63.55;100915.42;1752222;82;21215;-80
2021/03/12 08:53:51;;;;;;;5.30;2.70;;;;;;;-4.06;62.14;100908.47;1768894;78;21053;-79
2021/03/12 08:56:27;;;;;;;4.13;1.83;;;;;;;-4.31;63.42;100911.63;1700216;84;21428;-83
2021/03/12 08:59:02;;;;;;;4.37;2.37;;;;;;;-4.36;65.24;100905.17;1677888;84;21483;-86
2021/03/12 09:01:57;;;;;;;4.80;2.93;;;;;;;-4.29;65.95;100915.92;1664884;85;21013;-83
2021/03/12 09:04:30;;;;;;;7.10;3.10;;;;;;;-4.24;63.96;100906.05;1680845;85;21392;-81
2021/03/12 09:07:18;;;;;;;3.03;2.20;;;;;;;-4.18;61.73;100904.96;1661555;85;21422;-80
2021/03/12 09:09:52;;;;;;;5.70;2.93;;;;;;;-4.28;59.63;100915.48;1662258;85;20974;-77
2021/03/12 09:12:27;;;;;;;5.20;3.27;;;;;;;-4.37;60.78;100915.78;1639400;85;21028;-79
2021/03/12 09:15:02;;;;;;;9.38;3.58;;;;;;;-4.32;62.02;100911.20;1659973;85;21089;-79
2021/03/12 09:17:39;;;;;;;3.57;2.17;;;;;;;-4.26;63.45;100898.65;1658290;86;21364;-78
2021/03/12 09:20:15;;;;;;;4.90;3.40;;;;;;;-4.09;65.12;100892.77;1655597;86;21277;-78
2021/03/12 09:22:56;;;;;;;8.57;4.13;;;;;;;-3.93;64.54;100884.24;1657785;85;21207;-80
2021/03/12 09:25:31;;;;;;;9.43;3.60;;;;;;;-3.77;65.73;100874.83;1664430;85;21218;-79
2021/03/12 09:28:13;;;;;;;6.23;2.73;;;;;;;-3.52;65.32;100873.41;1665334;86;21064;-80
2021/03/12 09:30:45;;;;;;;5.87;2.50;;;;;;;-3.48;60.07;100876.78;1698351;84;21580;-82
2021/03/12 09:33:37;;;;;;;6.80;3.90;;;;;;;-3.53;60.04;100865.06;1698737;83;21090;-80
2021/03/12 09:36:36;;;;;;;7.93;3.13;;;;;;;-3.38;61.64;100856.99;1839902;75;23563;-80
2021/03/12 09:39:22;;;;;;;8.27;3.97;;;;;;;-3.28;61.02;100849.52;1756990;81;20946;-81
2021/03/12 09:42:03;;;;;;;12.40;3.57;;;;;;;-3.06;61.42;100833.17;1839603;76;25209;-82
2021/03/12 09:44:36;;;;;;;9.40;3.10;;;;;;;-3.00;60.90;100825.90;1851555;77;20941;-84
2021/03/12 09:47:25;;;;;;;3.90;2.67;;;;;;;-3.09;60.67;100839.05;1787698;77;21652;31
2021/03/12 09:49:56;;;;;;;8.30;3.57;;;;;;;-3.11;59.61;100850.17;1650423;86;21012;-80
2021/03/12 09:52:29;;;;;;;4.93;2.83;;;;;;;-3.21;60.21;100858.93;1662427;85;21126;-80
2021/03/12 09:54:59;;;;;;;7.27;3.17;;;;;;;-3.28;59.89;100852.17;1630058;87;21068;-81
2021/03/12 09:57:29;;;;;;;7.73;3.57;;;;;;;-3.29;61.53;100839.42;1649124;86;21043;-82
2021/03/12 09:59:59;;;;;;;8.00;3.47;;;;;;;-3.26;62.23;100832.69;1651164;87;22404;-82
2021/03/12 10:02:52;;;;;;;6.87;3.73;;;;;;;-3.18;63.73;100822.25;1655794;85;21716;-82
2021/03/12 10:05:31;;;;;;;9.07;4.57;;;;;;;-3.15;63.70;100812.84;1812050;77;26940;-81
2021/03/12 10:08:05;;;;;;;;;;;;;;;-3.12;64.85;100816.21;1781732;80;20982;-81
2021/03/12 10:10:36;;;;;;;7.63;3.47;;;;;;;-3.02;63.02;100800.82;1778134;80;22533;-83
2021/03/12 10:13:06;;;;;;;11.10;4.23;;;;;;;-2.76;66.42;100789.11;1726513;81;21021;-82
2021/03/12 10:15:49;;;;;;;14.27;3.00;;;;;;;-2.39;64.81;100797.17;1814882;77;27352;-81
2021/03/12 10:18:21;;;;;;;7.20;3.30;;;;;;;-2.18;62.43;100795.33;1707955;82;21017;-80
2021/03/12 10:21:08;;;;;;;9.60;4.20;;;;;;;-2.04;61.66;100792.05;1860881;76;25760;-81
2021/03/12 10:23:39;;;;;;;10.70;4.77;;;;;;;-1.99;61.67;100792.69;1832979;77;20954;-81
2021/03/12 10:26:09;;;;;;;6.30;3.33;;;;;;;-1.84;60.06;100789.77;1831376;77;22592;-80
2021/03/12 10:28:37;;;;;;;5.27;3.33;;;;;;;-1.81;59.04;100785.65;1862818;77;21012;-81
2021/03/12 10:31:06;;;;;;;8.77;3.20;;;;;;;-1.81;59.57;100781.67;1850120;77;20998;-83
2021/03/12 10:33:36;;;;;;;4.40;2.67;;;;;;;-1.73;58.55;100777.72;1805208;78;21003;-79
2021/03/12 10:36:13;;;;;;;8.85;3.40;;;;;;;-1.86;58.43;100777.94;1793456;80;20915;-80
2021/03/12 10:38:57;;;;;;;;;;;;;;;;;;;;;
2021/03/12 10:41:22;;;;;;;9.63;4.10;;;;;;;-1.76;59.00;100760.62;1725182;83;20991;-82
2021/03/12 10:44:02;;;;;;;9.35;3.90;;;;;;;-1.78;59.77;100753.69;1720708;81;21044;-81
2021/03/12 10:46:32;;;;;;;7.87;3.90;;;;;;;-1.73;59.22;100753.86;1720474;82;21056;-79
2021/03/12 10:49:02;;;;;;;9.60;4.40;;;;;;;-1.58;60.21;100757.53;1712270;81;21521;-81
2021/03/12 10:51:41;;;;;;;6.80;3.40;;;;;;;-1.37;59.56;100745.47;1710656;81;21221;-81
2021/03/12 10:56:48;;;;;;;5.87;3.27;;;;;;;-1.10;56.70;100731.25;1839536;76;25993;-79
2021/03/12 10:59:17;;;;;;;11.13;3.47;;;;;;;-1.17;54.68;100730.73;1841230;77;20965;-78
2021/03/12 11:01:48;;;;;;;6.63;3.00;;;;;;;-1.25;54.02;100724.95;1833843;77;21049;-73
2021/03/12 11:04:17;;;;;;;5.43;2.73;;;;;;;-1.22;54.35;100721.27;1834106;77;21013;-75
2021/03/12 11:06:46;;;;;;;22.13;6.53;;;;;;;-1.24;54.28;100716.51;1827835;77;21579;-77
2021/03/12 11:09:14;;;;;;;9.10;3.77;;;;;;;-1.26;54.46;100709.95;1823965;78;20993;-75
2021/03/12 11:11:44;;;;;;;5.03;2.87;;;;;;;-1.25;54.84;100702.88;1821919;78;21452;-80
2021/03/12 11:14:16;;;;;;;5.57;3.03;;;;;;;-1.21;55.46;100691.16;1823345;77;22348;-76
2021/03/12 11:16:45;;;;;;;5.27;2.90;;;;;;;-1.11;56.34;100678.27;1786894;79;20957;-77
2021/03/12 11:19:14;;;;;;;8.53;3.37;;;;;;;-1.00;54.30;100674.57;1836551;77;20989;-80
2021/03/12 11:21:43;;;;;;;7.77;3.40;;;;;;;-1.04;51.64;100673.88;1829036;77;21530;-82
2021/03/12 11:24:13;;;;;;;7.50;3.20;;;;;;;-1.11;51.54;100666.33;1823420;78;20989;-80
2021/03/12 11:26:43;;;;;;;8.30;3.23;;;;;;;-1.05;53.13;100669.97;1824206;77;21250;-80
2021/03/12 11:29:13;;;;;;;7.73;3.07;;;;;;;-0.93;52.53;100660.03;1830841;77;21172;-83
2021/03/12 11:31:41;;;;;;;5.13;3.33;;;;;;;-0.74;53.98;100665.21;1840340;77;21012;-77
2021/03/12 11:34:10;;;;;;;9.17;3.80;;;;;;;-0.52;53.27;100670.19;1828588;77;20976;-81
2021/03/12 11:36:38;;;;;;;7.73;3.80;;;;;;;-0.49;52.74;100664.72;1832805;77;21395;-79
2021/03/12 11:39:08;;;;;;;10.43;4.07;;;;;;;-0.66;51.39;100664.30;1824702;77;21648;-75
2021/03/12 11:41:37;;;;;;;8.07;3.50;;;;;;;-0.85;50.81;100651.19;1828470;77;20999;-76
2021/03/12 11:44:07;;;;;;;9.93;3.73;;;;;;;-0.74;52.07;100649.27;1832174;77;20962;-78
2021/03/12 11:46:35;;;;;;;6.80;3.27;;;;;;;-0.63;50.90;100656.66;1824503;77;20985;-80
2021/03/12 11:49:05;;;;;;;7.63;3.50;;;;;;;-0.68;49.56;100644.09;1847612;77;20993;-79
2021/03/12 11:51:35;;;;;;;10.00;3.53;;;;;;;-0.93;49.39;100649.89;1857312;77;21568;-80
2021/03/12 11:54:05;;;;;;;10.97;4.17;;;;;;;-1.07;50.82;100636.87;1854995;77;21221;-81
2021/03/12 11:56:36;;;;;;;6.60;3.70;;;;;;;-1.00;51.54;100629.44;1809822;78;20930;-80
2021/03/12 11:59:07;;;;;;;20.03;4.70;;;;;;;-0.97;51.36;100620.84;1761913;81;21020;-82
2021/03/12 12:01:36;;;;;;;9.77;4.90;;;;;;;-0.93;50.62;100619.36;1754718;80;21037;-80
2021/03/12 12:04:05;;;;;;;10.43;4.57;;;;;;;-0.98;50.57;100608.49;1768919;79;21199;-79
2021/03/12 12:06:35;;;;;;;10.37;3.80;;;;;;;-1.12;51.17;100596.92;1778546;79;20985;-79
2021/03/12 12:09:04;;;;;;;6.57;3.23;;;;;;;-1.17;51.49;100606.45;1785410;79;21546;-81
2021/03/12 12:11:33;;;;;;;10.87;4.47;;;;;;;-1.15;51.34;100590.00;1783771;79;21093;-81
2021/03/12 12:14:01;;;;;;;7.90;3.80;;;;;;;-1.26;51.88;100585.23;1807094;79;21129;-82
2021/03/12 12:16:30;;;;;;;9.30;4.03;;;;;;;-1.25;53.47;100573.70;1761401;80;21363;-78
2021/03/12 12:19:04;;;;;;;7.73;3.90;;;;;;;-1.16;55.53;100593.09;1766350;80;20985;-79
2021/03/12 12:21:28;;;;;;;8.60;4.20;;;;;;;-1.01;57.77;100573.30;1752515;80;21002;-76
2021/03/12 12:23:57;;;;;;;8.53;3.73;;;;;;;-0.82;58.21;100568.68;1774655;79;21647;-75
2021/03/12 12:26:25;;;;;;;10.27;3.80;;;;;;;-0.78;57.26;100567.59;1767323;79;21030;-77
2021/03/12 12:28:53;;;;;;;8.93;4.00;;;;;;;-0.79;58.22;100568.52;1782348;79;21230;-78
2021/03/12 12:31:21;;;;;;;7.43;3.90;;;;;;;-0.82;58.66;100559.87;1755210;79;21811;-77